Time;durP1;ratioP1;P1;durP2;ratioP2;P2;SDS_P1;SDS_P2;PMS_P1;PMS_P2;Temp;Humidity;BMP_temperature;BMP_pressure;BME280_temperature;BME280_humidity;BME280_pressure;Samples;Min_cycle;Max_cycle;Signal;HPM_P1;HPM_P2
2021/05/19 00:00:45;;;;;;;26.58;16.20;;;;;;;;;;4981278;28;20027;-92
2021/05/19 00:03:11;;;;;;;29.33;15.32;;;;;;;;;;4982317;28;20049;-92
2021/05/19 00:05:37;;;;;;;22.98;13.82;;;;;;;;;;4981230;28;20413;-93
2021/05/19 00:08:03;;;;;;;25.00;13.10;;;;;;;;;;4982927;28;20030;-91
2021/05/19 00:10:29;;;;;;;27.10;11.68;;;;;;;;;;4981813;28;20031;-91
2021/05/19 00:12:55;;;;;;;26.48;11.55;;;;;;;;;;4981016;28;20033;-91
2021/05/19 00:15:21;;;;;;;20.08;10.00;;;;;;;;;;4981624;28;20030;-92
2021/05/19 00:17:47;;;;;;;23.88;14.95;;;;;;;;;;4981627;28;20405;-93
2021/05/19 00:20:15;;;;;;;24.73;14.02;;;;;;;;;;4981478;28;20051;-93
2021/05/19 00:22:41;;;;;;;18.17;11.15;;;;;;;;;;4980655;28;20043;-95
2021/05/19 00:25:08;;;;;;;17.33;10.02;;;;;;;;;;4981631;28;20019;-89
2021/05/19 00:27:34;;;;;;;19.10;10.32;;;;;;;;;;4981564;28;20027;-93
2021/05/19 00:30:01;;;;;;;18.17;9.18;;;;;;;;;;4981486;28;20027;-94
2021/05/19 00:32:27;;;;;;;13.30;7.97;;;;;;;;;;4980413;28;20413;-95
2021/05/19 00:34:53;;;;;;;11.20;7.43;;;;;;;;;;4981524;28;20086;-94
2021/05/19 00:37:19;;;;;;;12.60;6.03;;;;;;;;;;4980574;28;20027;-96
2021/05/19 00:39:46;;;;;;;11.02;5.93;;;;;;;;;;4980548;28;20198;-96
2021/05/19 00:42:13;;;;;;;13.32;7.13;;;;;;;;;;4981662;28;20102;-93
2021/05/19 00:44:39;;;;;;;9.98;6.53;;;;;;;;;;4981278;28;20039;-93
2021/05/19 00:47:05;;;;;;;10.30;5.57;;;;;;;;;;4980607;28;20047;-93
2021/05/19 00:49:32;;;;;;;10.73;4.97;;;;;;;;;;4981148;28;20033;-93
2021/05/19 00:51:58;;;;;;;7.88;4.78;;;;;;;;;;4982726;28;20035;-93
2021/05/19 00:54:24;;;;;;;14.77;5.95;;;;;;;;;;4981294;28;20513;-94
2021/05/19 00:56:51;;;;;;;7.75;5.22;;;;;;;;;;4980221;28;20117;-93
2021/05/19 00:59:17;;;;;;;10.80;5.70;;;;;;;;;;4981045;28;20054;-93
2021/05/19 01:01:44;;;;;;;7.40;5.43;;;;;;;;;;4980817;28;20023;-92
2021/05/19 01:04:11;;;;;;;6.93;5.60;;;;;;;;;;4980788;28;20062;-90
2021/05/19 01:06:49;;;;;;;7.93;5.90;;;;;;;;;;4981206;28;20097;-94
2021/05/19 01:12:00;;;;;;;9.55;5.90;;;;;;;;;;4981032;28;20038;-91
2021/05/19 01:14:26;;;;;;;10.35;6.20;;;;;;;;;;4979841;28;20031;-90
2021/05/19 01:16:52;;;;;;;12.30;6.53;;;;;;;;;;4980505;28;20031;-92
2021/05/19 01:19:19;;;;;;;13.82;6.40;;;;;;;;;;4986973;28;20026;-96
2021/05/19 01:21:47;;;;;;;10.73;6.18;;;;;;;;;;4979630;28;20033;-95
2021/05/19 01:24:13;;;;;;;11.70;6.53;;;;;;;;;;4980617;28;20110;-86
2021/05/19 01:26:39;;;;;;;12.75;6.93;;;;;;;;;;4980520;28;20018;-87
2021/05/19 01:29:06;;;;;;;12.38;6.57;;;;;;;;;;4980327;28;20050;-87
2021/05/19 01:31:33;;;;;;;9.25;6.50;;;;;;;;;;4980697;28;20110;-87
2021/05/19 01:33:59;;;;;;;9.88;6.18;;;;;;;;;;4980174;28;20059;-87
2021/05/19 01:36:25;;;;;;;9.35;6.15;;;;;;;;;;4980317;28;20027;-90
2021/05/19 01:38:51;;;;;;;10.25;6.15;;;;;;;;;;4980605;28;20023;-92
2021/05/19 01:41:18;;;;;;;12.75;6.82;;;;;;;;;;4979902;28;20049;-90
2021/05/19 01:43:44;;;;;;;10.75;7.57;;;;;;;;;;4980110;28;20019;-91
2021/05/19 01:46:10;;;;;;;14.48;7.45;;;;;;;;;;4980288;28;20038;-92
2021/05/19 01:48:36;;;;;;;12.98;7.65;;;;;;;;;;4979985;28;20026;-93
2021/05/19 01:51:06;;;;;;;13.27;8.77;;;;;;;;;;4980118;28;20026;-93
2021/05/19 01:53:33;;;;;;;18.00;8.98;;;;;;;;;;4983061;28;20027;-93
2021/05/19 01:55:59;;;;;;;18.70;9.52;;;;;;;;;;4981779;28;20034;-94
2021/05/19 01:58:26;;;;;;;13.85;9.00;;;;;;;;;;4983159;28;20031;-93
2021/05/19 02:00:52;;;;;;;15.40;8.90;;;;;;;;;;4982618;28;20027;-94
2021/05/19 02:03:19;;;;;;;15.43;9.40;;;;;;;;;;4978871;28;20030;-91
2021/05/19 02:05:45;;;;;;;15.20;9.18;;;;;;;;;;4978984;28;20440;-90
2021/05/19 02:08:11;;;;;;;18.80;9.32;;;;;;;;;;4980037;28;20027;-90
2021/05/19 02:10:38;;;;;;;15.98;8.88;;;;;;;;;;4979637;28;20328;-94
2021/05/19 02:13:05;;;;;;;16.52;9.63;;;;;;;;;;4978875;28;20046;-93
2021/05/19 02:15:32;;;;;;;17.42;11.15;;;;;;;;;;4978176;28;20065;-91
2021/05/19 02:17:59;;;;;;;17.02;10.70;;;;;;;;;;4979553;28;20220;-91
2021/05/19 02:20:25;;;;;;;24.35;13.05;;;;;;;;;;4979568;28;20027;-90
2021/05/19 02:22:51;;;;;;;17.40;10.63;;;;;;;;;;4978506;28;20023;-91
2021/05/19 02:25:18;;;;;;;16.08;9.38;;;;;;;;;;4979400;28;20027;-92
2021/05/19 02:27:47;;;;;;;15.38;8.93;;;;;;;;;;4990994;28;20075;-96
2021/05/19 02:30:15;;;;;;;14.77;9.77;;;;;;;;;;4990255;28;20121;-93
2021/05/19 02:32:41;;;;;;;15.60;9.32;;;;;;;;;;4979641;28;20097;-93
2021/05/19 02:35:07;;;;;;;19.38;11.38;;;;;;;;;;4979359;28;20065;-92
2021/05/19 02:37:34;;;;;;;34.63;20.85;;;;;;;;;;4978235;28;20034;-94
2021/05/19 02:40:00;;;;;;;53.78;32.33;;;;;;;;;;4979096;28;20023;-96
2021/05/19 02:42:26;;;;;;;47.80;32.15;;;;;;;;;;4979268;28;20031;-93
2021/05/19 02:44:52;;;;;;;58.35;35.92;;;;;;;;;;4979428;28;20039;-92
2021/05/19 02:47:18;;;;;;;62.13;33.50;;;;;;;;;;4979400;28;20022;-93
2021/05/19 02:49:44;;;;;;;61.67;37.13;;;;;;;;;;4979235;28;20026;-93
2021/05/19 02:52:10;;;;;;;60.90;39.50;;;;;;;;;;4979003;28;20015;-92
2021/05/19 02:54:36;;;;;;;58.85;38.50;;;;;;;;;;4978866;28;20035;-92
2021/05/19 02:57:03;;;;;;;52.17;33.33;;;;;;;;;;4987628;28;20030;-96
2021/05/19 02:59:29;;;;;;;51.88;30.42;;;;;;;;;;4982388;28;20027;-96
2021/05/19 03:01:55;;;;;;;37.20;22.60;;;;;;;;;;4979977;28;20037;-96
2021/05/19 03:04:21;;;;;;;31.90;20.05;;;;;;;;;;4978303;28;20114;-96
2021/05/19 03:06:47;;;;;;;38.05;22.90;;;;;;;;;;4979339;28;20023;-96
2021/05/19 03:09:13;;;;;;;37.70;22.20;;;;;;;;;;4979048;28;20389;-93
2021/05/19 03:11:39;;;;;;;34.60;21.08;;;;;;;;;;4977868;28;20030;-90
2021/05/19 03:14:05;;;;;;;33.17;20.42;;;;;;;;;;4977812;28;20050;-91
2021/05/19 03:16:33;;;;;;;31.90;19.95;;;;;;;;;;4978505;28;20022;-92
2021/05/19 03:19:00;;;;;;;36.35;23.58;;;;;;;;;;4978818;28;20023;-93
2021/05/19 03:21:26;;;;;;;47.50;27.52;;;;;;;;;;4978003;28;20038;-94
2021/05/19 03:23:52;;;;;;;41.03;24.95;;;;;;;;;;4997636;28;20416;-89
2021/05/19 03:26:18;;;;;;;39.60;23.95;;;;;;;;;;4998929;28;20101;-89
2021/05/19 03:28:45;;;;;;;38.47;23.70;;;;;;;;;;5001453;28;20026;-90
2021/05/19 03:31:12;;;;;;;35.58;22.50;;;;;;;;;;5000984;28;20483;-86
2021/05/19 03:33:38;;;;;;;41.35;23.05;;;;;;;;;;5001969;28;20058;-89
2021/05/19 03:36:05;;;;;;;41.35;25.15;;;;;;;;;;5002049;28;20364;-90
2021/05/19 03:38:31;;;;;;;56.97;31.08;;;;;;;;;;5002286;28;20031;-89
2021/05/19 03:40:57;;;;;;;62.65;34.88;;;;;;;;;;4997059;28;20027;-89
2021/05/19 03:43:24;;;;;;;59.65;29.85;;;;;;;;;;4984961;28;20089;-91
2021/05/19 03:45:50;;;;;;;38.38;20.33;;;;;;;;;;5002323;28;20342;-91
2021/05/19 03:48:16;;;;;;;31.50;17.30;;;;;;;;;;5001134;28;20030;-91
2021/05/19 03:50:43;;;;;;;29.58;15.23;;;;;;;;;;5001406;28;20034;-90
2021/05/19 03:53:09;;;;;;;28.88;14.90;;;;;;;;;;4982674;28;20027;-92
2021/05/19 03:58:39;;;;;;;33.15;20.83;;;;;;;;;;5001944;28;20037;-91
2021/05/19 04:01:05;;;;;;;38.33;20.13;;;;;;;;;;5000285;28;20034;-93
2021/05/19 04:03:31;;;;;;;30.58;18.02;;;;;;;;;;5001448;28;20035;-93
2021/05/19 04:05:57;;;;;;;30.13;17.17;;;;;;;;;;5001840;28;20380;-93
2021/05/19 04:08:32;;;;;;;29.08;15.73;;;;;;;;;;5000380;28;20161;-92
2021/05/19 04:10:58;;;;;;;27.40;15.65;;;;;;;;;;5000277;28;20065;-92
2021/05/19 04:13:24;;;;;;;29.20;16.95;;;;;;;;;;5001290;28;20026;-91
2021/05/19 04:15:51;;;;;;;25.30;16.17;;;;;;;;;;5001470;28;20423;-92
2021/05/19 04:18:17;;;;;;;26.98;16.65;;;;;;;;;;5001180;28;20038;-88
2021/05/19 04:20:43;;;;;;;25.73;16.23;;;;;;;;;;5000915;28;20033;-88
2021/05/19 04:23:09;;;;;;;29.98;19.08;;;;;;;;;;5000051;28;20113;-88
2021/05/19 04:25:36;;;;;;;35.33;24.10;;;;;;;;;;5001290;28;20393;-88
2021/05/19 04:28:03;;;;;;;28.73;17.92;;;;;;;;;;5000279;28;20054;-88
2021/05/19 04:30:29;;;;;;;32.60;21.30;;;;;;;;;;5000188;28;20026;-88
2021/05/19 04:32:55;;;;;;;34.80;23.00;;;;;;;;;;5004843;28;20486;-95
2021/05/19 04:35:21;;;;;;;46.30;27.83;;;;;;;;;;5009638;28;20064;-96
2021/05/19 04:37:48;;;;;;;47.10;27.45;;;;;;;;;;5007899;28;20050;-95
2021/05/19 04:40:14;;;;;;;45.63;27.20;;;;;;;;;;5009217;28;20022;-95
2021/05/19 04:42:41;;;;;;;42.58;23.67;;;;;;;;;;5006594;28;20365;-93
2021/05/19 04:45:08;;;;;;;38.53;22.48;;;;;;;;;;5000120;28;20023;-92
2021/05/19 04:47:34;;;;;;;36.60;20.20;;;;;;;;;;5000011;28;20026;-94
2021/05/19 04:50:00;;;;;;;32.20;15.98;;;;;;;;;;4999628;28;20019;-93
2021/05/19 04:52:26;;;;;;;23.92;12.60;;;;;;;;;;5000479;28;20026;-93
2021/05/19 04:54:52;;;;;;;17.65;10.07;;;;;;;;;;5000440;28;20026;-94
2021/05/19 04:57:19;;;;;;;11.00;6.40;;;;;;;;;;5000585;28;20030;-93
2021/05/19 04:59:45;;;;;;;9.45;6.18;;;;;;;;;;5000361;28;20018;-90
2021/05/19 05:02:11;;;;;;;7.78;5.03;;;;;;;;;;5000419;28;20018;-89
2021/05/19 05:04:37;;;;;;;12.02;4.47;;;;;;;;;;4994267;28;20053;-92
2021/05/19 05:07:03;;;;;;;8.45;4.53;;;;;;;;;;4999215;28;20027;-92
2021/05/19 05:09:29;;;;;;;5.97;4.60;;;;;;;;;;4989793;28;20027;-91
2021/05/19 05:12:14;;;;;;;8.38;4.65;;;;;;;;;;4981148;28;20317;-89
2021/05/19 05:14:40;;;;;;;7.65;4.60;;;;;;;;;;4980789;28;20414;-90
2021/05/19 05:17:06;;;;;;;3.92;3.50;;;;;;;;;;4980605;28;20041;-90
2021/05/19 05:19:33;;;;;;;7.72;4.10;;;;;;;;;;4979551;28;20038;-90
2021/05/19 05:21:59;;;;;;;7.75;4.20;;;;;;;;;;4980367;28;20054;-89
2021/05/19 05:24:25;;;;;;;8.40;5.35;;;;;;;;;;4980930;28;20034;-90
2021/05/19 05:26:51;;;;;;;7.13;4.90;;;;;;;;;;4980821;28;20015;-90
2021/05/19 05:29:17;;;;;;;10.88;6.00;;;;;;;;;;4979566;28;20448;-94
2021/05/19 05:31:43;;;;;;;10.25;5.95;;;;;;;;;;4979786;28;20034;-87
2021/05/19 05:34:09;;;;;;;8.68;5.85;;;;;;;;;;4980239;28;20469;-87
2021/05/19 05:36:35;;;;;;;11.70;5.15;;;;;;;;;;4980290;28;20035;-88
2021/05/19 05:39:01;;;;;;;8.45;5.25;;;;;;;;;;4979442;28;20105;-88
2021/05/19 05:41:27;;;;;;;9.00;4.88;;;;;;;;;;4980147;28;20027;-88
2021/05/19 05:43:53;;;;;;;15.10;5.65;;;;;;;;;;4980093;28;20077;-87
2021/05/19 05:46:19;;;;;;;8.55;4.80;;;;;;;;;;4980344;28;20023;-88
2021/05/19 05:48:46;;;;;;;8.63;4.50;;;;;;;;;;4980127;28;20043;-88
2021/05/19 05:51:12;;;;;;;6.22;4.63;;;;;;;;;;4983317;28;20054;-95
2021/05/19 05:53:38;;;;;;;9.27;4.85;;;;;;;;;;4992893;28;20038;-93
2021/05/19 05:56:04;;;;;;;26.92;16.33;;;;;;;;;;4980355;28;20302;-95
2021/05/19 05:58:30;;;;;;;11.32;5.45;;;;;;;;;;4965351;28;20050;-96
2021/05/19 06:00:56;;;;;;;10.40;5.80;;;;;;;;;;4981466;28;20158;-95
2021/05/19 06:03:23;;;;;;;10.60;4.93;;;;;;;;;;4980055;28;20412;-94
2021/05/19 06:05:49;;;;;;;13.65;5.53;;;;;;;;;;4980856;28;20034;-96
2021/05/19 06:08:15;;;;;;;7.13;4.22;;;;;;;;;;4979877;28;20019;-94
2021/05/19 06:10:41;;;;;;;8.30;4.50;;;;;;;;;;4978879;28;20039;-95
2021/05/19 06:13:07;;;;;;;7.80;5.40;;;;;;;;;;4979953;28;20302;-93
2021/05/19 06:15:33;;;;;;;14.05;10.10;;;;;;;;;;4979846;28;20026;-95
2021/05/19 06:17:59;;;;;;;18.23;13.30;;;;;;;;;;4980123;28;20031;-94
2021/05/19 06:20:25;;;;;;;10.73;7.25;;;;;;;;;;4979983;28;20054;-94
2021/05/19 06:22:51;;;;;;;8.93;4.80;;;;;;;;;;4979911;28;20022;-94
2021/05/19 06:25:18;;;;;;;6.60;5.07;;;;;;;;;;4980140;28;20027;-95
2021/05/19 06:27:44;;;;;;;15.38;11.10;;;;;;;;;;4978739;28;20125;-88
2021/05/19 06:30:11;;;;;;;19.15;12.30;;;;;;;;;;4979665;28;20027;-89
2021/05/19 06:32:37;;;;;;;11.35;7.10;;;;;;;;;;4980585;28;20043;-95
2021/05/19 06:35:08;;;;;;;13.75;7.32;;;;;;;;;;4983417;28;20405;-96
2021/05/19 06:37:35;;;;;;;12.10;7.60;;;;;;;;;;4984831;28;20027;-95
2021/05/19 06:40:01;;;;;;;13.00;8.65;;;;;;;;;;4979270;28;20026;-94
2021/05/19 06:42:27;;;;;;;6.75;4.50;;;;;;;;;;4979284;28;20038;-94
2021/05/19 06:44:53;;;;;;;5.75;4.68;;;;;;;;;;4981294;28;20019;-95
2021/05/19 06:47:19;;;;;;;6.15;3.75;;;;;;;;;;4979355;28;20027;-96
2021/05/19 06:49:45;;;;;;;15.35;7.63;;;;;;;;;;4979033;28;20026;-94
2021/05/19 06:52:11;;;;;;;5.80;4.10;;;;;;;;;;4978998;28;20460;-94
2021/05/19 06:54:37;;;;;;;5.22;3.78;;;;;;;;;;4979024;28;20034;-93
2021/05/19 06:57:04;;;;;;;8.43;3.80;;;;;;;;;;4979131;28;20034;-94
2021/05/19 06:59:30;;;;;;;7.50;3.47;;;;;;;;;;4977867;28;20302;-94
2021/05/19 07:01:56;;;;;;;5.30;3.75;;;;;;;;;;4978484;28;20057;-94
2021/05/19 07:04:22;;;;;;;6.85;3.95;;;;;;;;;;4977915;28;20022;-95
2021/05/19 07:06:48;;;;;;;4.85;3.53;;;;;;;;;;4979068;28;20027;-94
2021/05/19 07:09:14;;;;;;;8.13;4.78;;;;;;;;;;4977904;28;20026;-94
2021/05/19 07:11:40;;;;;;;6.10;3.97;;;;;;;;;;4977859;28;20029;-94
2021/05/19 07:14:14;;;;;;;8.20;5.18;;;;;;;;;;4978833;28;20082;-94
2021/05/19 07:16:46;;;;;;;10.55;5.70;;;;;;;;;;4979068;28;20030;-92
2021/05/19 07:19:13;;;;;;;77.93;53.03;;;;;;;;;;4977823;28;20031;-93
2021/05/19 07:21:39;;;;;;;72.30;49.58;;;;;;;;;;4977116;28;20038;-92
2021/05/19 07:24:07;;;;;;;15.57;10.60;;;;;;;;;;4978468;28;20330;-93
2021/05/19 07:26:33;;;;;;;10.70;6.97;;;;;;;;;;4977696;28;20038;-92
2021/05/19 07:28:59;;;;;;;26.45;19.05;;;;;;;;;;4978828;28;20393;-92
2021/05/19 07:31:25;;;;;;;12.55;9.02;;;;;;;;;;4977644;28;20031;-91
2021/05/19 07:33:51;;;;;;;13.93;9.18;;;;;;;;;;4978665;28;20043;-92
2021/05/19 07:36:18;;;;;;;18.75;12.23;;;;;;;;;;4977505;28;20035;-92
2021/05/19 07:38:44;;;;;;;16.42;9.43;;;;;;;;;;4977689;28;20369;-92
2021/05/19 07:41:10;;;;;;;9.18;5.82;;;;;;;;;;4978371;28;20027;-93
2021/05/19 07:43:36;;;;;;;17.52;12.35;;;;;;;;;;4978161;28;20250;-94
2021/05/19 07:46:02;;;;;;;10.90;6.68;;;;;;;;;;4978817;28;20027;-93
2021/05/19 07:48:28;;;;;;;14.98;10.02;;;;;;;;;;4978188;28;20089;-93
2021/05/19 07:50:54;;;;;;;20.48;11.25;;;;;;;;;;4978427;28;20037;-90
2021/05/19 07:53:20;;;;;;;13.60;6.32;;;;;;;;;;4978491;28;20122;-90
2021/05/19 07:56:12;;;;;;;12.60;8.38;;;;;;;;;;4977573;28;20031;-87
2021/05/19 07:58:46;;;;;;;11.38;5.97;;;;;;;;;;4977054;28;20046;-90
2021/05/19 08:03:56;;;;;;;11.63;7.68;;;;;;;;;;4978914;28;20452;-89
2021/05/19 08:06:22;;;;;;;5.45;4.63;;;;;;;;;;4978720;28;20030;-90
2021/05/19 08:08:48;;;;;;;7.68;5.22;;;;;;;;;;4978186;28;20027;-90
2021/05/19 08:11:17;;;;;;;7.88;5.28;;;;;;;;;;4977277;28;20030;-90
2021/05/19 08:13:46;;;;;;;12.38;5.40;;;;;;;;;;4979539;28;20031;-91
2021/05/19 08:16:13;;;;;;;7.90;5.18;;;;;;;;;;4980684;28;20023;-91
2021/05/19 08:18:39;;;;;;;7.88;5.47;;;;;;;;;;4981754;28;20027;-92
2021/05/19 08:21:05;;;;;;;6.57;5.00;;;;;;;;;;4980678;28;20031;-91
2021/05/19 08:23:31;;;;;;;7.05;5.25;;;;;;;;;;4980827;28;20042;-91
2021/05/19 08:25:57;;;;;;;8.68;5.00;;;;;;;;;;4964920;28;20413;-91
2021/05/19 08:28:24;;;;;;;12.25;5.00;;;;;;;;;;4981613;28;20033;-92
2021/05/19 08:30:50;;;;;;;10.60;4.95;;;;;;;;;;4980565;28;20077;-95
2021/05/19 08:33:16;;;;;;;5.70;4.68;;;;;;;;;;4981513;28;20042;-95
2021/05/19 08:35:43;;;;;;;8.18;5.13;;;;;;;;;;4980994;28;20034;-95
2021/05/19 08:38:09;;;;;;;13.00;9.13;;;;;;;;;;4980554;28;20492;-95
2021/05/19 08:40:35;;;;;;;11.88;6.13;;;;;;;;;;4980122;28;20027;-94
2021/05/19 08:43:02;;;;;;;10.30;6.07;;;;;;;;;;4981593;28;20027;-95
2021/05/19 08:45:28;;;;;;;8.43;5.95;;;;;;;;;;4981453;28;20023;-95
2021/05/19 08:47:59;;;;;;;7.50;5.38;;;;;;;;;;4980541;28;20081;-94
2021/05/19 08:50:26;;;;;;;7.90;5.60;;;;;;;;;;4979994;28;20071;-94
2021/05/19 08:52:52;;;;;;;8.45;5.65;;;;;;;;;;4980939;28;20038;-91
2021/05/19 08:55:19;;;;;;;13.20;8.18;;;;;;;;;;4981272;28;20033;-93
2021/05/19 08:57:45;;;;;;;8.32;5.70;;;;;;;;;;4980317;28;20031;-93
2021/05/19 09:00:11;;;;;;;15.07;5.45;;;;;;;;;;4980654;28;20034;-93
2021/05/19 09:02:38;;;;;;;9.98;6.82;;;;;;;;;;4981044;28;20031;-95
2021/05/19 09:05:06;;;;;;;9.13;5.68;;;;;;;;;;4981399;28;20351;-95
2021/05/19 09:07:32;;;;;;;13.00;5.90;;;;;;;;;;4981397;28;20039;-95
2021/05/19 09:10:14;;;;;;;12.38;6.55;;;;;;;;;;4980169;28;20027;-94
2021/05/19 09:12:40;;;;;;;;;;;;;;;;;;4981293;28;20431;-94
2021/05/19 09:15:06;;;;;;;6.85;5.28;;;;;;;;;;4980643;28;19906;-93
2021/05/19 09:17:38;;;;;;;7.20;5.22;;;;;;;;;;4979619;28;20357;-93
2021/05/19 09:20:11;;;;;;;7.30;4.93;;;;;;;;;;4980891;28;20312;-94
2021/05/19 09:22:40;;;;;;;8.85;5.65;;;;;;;;;;4980962;28;20026;-94
2021/05/19 09:25:22;;;;;;;8.30;6.05;;;;;;;;;;4981156;28;20023;-95
2021/05/19 09:27:50;;;;;;;7.93;5.22;;;;;;;;;;4980520;28;20043;-92
2021/05/19 09:30:16;;;;;;;8.13;5.30;;;;;;;;;;4979403;28;20114;-92
2021/05/19 09:32:45;;;;;;;6.40;5.35;;;;;;;;;;4979347;28;20034;-92
2021/05/19 09:35:15;;;;;;;9.73;6.20;;;;;;;;;;4980682;28;20039;-93
2021/05/19 09:37:41;;;;;;;12.18;8.68;;;;;;;;;;4979650;28;20029;-91
2021/05/19 09:40:11;;;;;;;23.92;16.92;;;;;;;;;;4980331;28;20432;-92
2021/05/19 09:42:37;;;;;;;36.38;28.50;;;;;;;;;;4980437;28;20054;-93
2021/05/19 09:45:19;;;;;;;60.70;54.33;;;;;;;;;;4980483;28;20023;-93
2021/05/19 09:47:45;;;;;;;78.80;67.05;;;;;;;;;;4980193;28;20380;-92
2021/05/19 09:50:14;;;;;;;38.42;33.28;;;;;;;;;;4980021;28;20117;-91
2021/05/19 09:52:50;;;;;;;35.20;27.55;;;;;;;;;;4980009;28;20051;-93
2021/05/19 09:55:16;;;;;;;29.45;22.27;;;;;;;;;;4979098;28;20422;-93
2021/05/19 09:57:48;;;;;;;30.13;26.88;;;;;;;;;;4978928;28;20107;-92
2021/05/19 10:00:14;;;;;;;30.85;22.33;;;;;;;;;;4980059;28;20046;-94
2021/05/19 10:02:42;;;;;;;13.43;9.23;;;;;;;;;;4980068;28;20428;-93
2021/05/19 10:05:12;;;;;;;11.43;7.65;;;;;;;;;;4980045;28;20038;-93
2021/05/19 10:07:39;;;;;;;8.38;6.30;;;;;;;;;;4979809;28;20030;-92
2021/05/19 10:10:05;;;;;;;15.15;7.60;;;;;;;;;;4979932;28;20023;-93
2021/05/19 10:12:32;;;;;;;14.18;8.48;;;;;;;;;;4979892;28;20027;-92
2021/05/19 10:15:02;;;;;;;11.40;7.57;;;;;;;;;;4979768;28;20026;-93
2021/05/19 10:17:29;;;;;;;10.93;7.85;;;;;;;;;;4979484;28;20019;-94
2021/05/19 10:19:56;;;;;;;62.53;19.00;;;;;;;;;;4979992;28;20058;-90
2021/05/19 10:22:26;;;;;;;40.50;14.15;;;;;;;;;;4981102;28;20118;-96
2021/05/19 10:24:55;;;;;;;24.40;14.65;;;;;;;;;;4979201;28;20050;-89
2021/05/19 10:27:21;;;;;;;18.80;9.20;;;;;;;;;;4978101;28;20321;-90
2021/05/19 10:29:47;;;;;;;15.88;8.30;;;;;;;;;;4978423;28;20023;-90
2021/05/19 10:32:22;;;;;;;9.27;5.85;;;;;;;;;;4979341;28;20309;-89
2021/05/19 10:34:50;;;;;;;14.38;6.63;;;;;;;;;;4979041;28;20129;-89
2021/05/19 10:37:28;;;;;;;18.58;10.73;;;;;;;;;;4978845;28;20026;-90
2021/05/19 10:40:17;;;;;;;24.48;14.80;;;;;;;;;;4979213;28;20034;-90
2021/05/19 10:42:44;;;;;;;40.67;17.13;;;;;;;;;;4939197;29;20044;-90
2021/05/19 10:45:15;;;;;;;30.02;9.88;;;;;;;;;;4939117;29;20062;-90
2021/05/19 10:47:42;;;;;;;11.38;8.07;;;;;;;;;;4939320;29;20157;-89
2021/05/19 10:50:26;;;;;;;10.23;6.30;;;;;;;;;;4923145;29;20334;-89
2021/05/19 10:58:29;;;;;;;5.93;4.35;;;;;;;;;;4939343;29;20039;-89
2021/05/19 11:00:55;;;;;;;8.82;4.97;;;;;;;;;;4938832;29;20043;-89
2021/05/19 11:03:22;;;;;;;7.63;4.80;;;;;;;;;;4922999;29;20063;-90
2021/05/19 11:05:55;;;;;;;13.25;5.40;;;;;;;;;;4922800;29;20102;-90
2021/05/19 11:08:21;;;;;;;15.32;9.85;;;;;;;;;;4922959;29;20075;-91
2021/05/19 11:10:49;;;;;;;10.43;8.30;;;;;;;;;;4938510;29;20032;-90
2021/05/19 11:13:19;;;;;;;8.40;6.28;;;;;;;;;;4938878;29;20414;-90
2021/05/19 11:15:55;;;;;;;8.63;5.97;;;;;;;;;;4938761;29;20039;-90
2021/05/19 11:21:16;;;;;;;8.60;3.95;;;;;;;;;;4957572;29;20065;-89
2021/05/19 11:23:43;;;;;;;16.90;11.65;;;;;;;;;;4958415;29;20045;-92
2021/05/19 11:26:11;;;;;;;9.35;4.90;;;;;;;;;;4958048;29;20039;-96
2021/05/19 11:28:37;;;;;;;4.32;2.75;;;;;;;;;;4958035;29;20050;-96
2021/05/19 11:31:12;;;;;;;5.47;2.83;;;;;;;;;;4958083;29;20038;-96
2021/05/19 11:33:51;;;;;;;8.00;3.42;;;;;;;;;;4941200;29;20043;-94
2021/05/19 11:36:30;;;;;;;4.22;2.42;;;;;;;;;;4957903;29;20048;-96
2021/05/19 11:38:57;;;;;;;3.95;2.20;;;;;;;;;;4942062;29;20433;-96
2021/05/19 11:41:23;;;;;;;6.90;2.47;;;;;;;;;;4958288;29;20061;-95
2021/05/19 11:43:49;;;;;;;4.38;2.00;;;;;;;;;;4958281;29;20023;-95
2021/05/19 11:46:15;;;;;;;4.90;2.55;;;;;;;;;;4941745;29;20032;-96
2021/05/19 11:48:48;;;;;;;8.45;2.90;;;;;;;;;;4960780;28;20184;-95
2021/05/19 11:51:20;;;;;;;5.35;2.38;;;;;;;;;;4945670;29;20058;-95
2021/05/19 11:53:58;;;;;;;5.45;3.83;;;;;;;;;;4961811;29;20042;-96
2021/05/19 11:56:25;;;;;;;9.60;3.25;;;;;;;;;;4961838;29;20023;-96
2021/05/19 11:58:51;;;;;;;4.90;2.80;;;;;;;;;;4977851;28;20035;-96
2021/05/19 12:01:18;;;;;;;9.98;3.13;;;;;;;;;;4982632;28;20117;-94
2021/05/19 12:03:45;;;;;;;6.72;2.30;;;;;;;;;;4981454;28;20425;-95
2021/05/19 12:06:12;;;;;;;7.65;2.13;;;;;;;;;;4981300;28;20046;-95
2021/05/19 12:08:39;;;;;;;11.63;2.85;;;;;;;;;;4982549;28;20030;-95
2021/05/19 12:11:09;;;;;;;8.27;3.83;;;;;;;;;;4981199;28;20060;-88
2021/05/19 12:13:37;;;;;;;6.50;3.63;;;;;;;;;;4992853;28;20042;-93
2021/05/19 12:16:07;;;;;;;2.88;2.17;;;;;;;;;;5001662;28;20046;-90
2021/05/19 12:18:33;;;;;;;3.80;1.90;;;;;;;;;;5001252;28;20065;-90
2021/05/19 12:20:59;;;;;;;33.47;26.15;;;;;;;;;;5000363;28;20040;-92
2021/05/19 12:23:25;;;;;;;27.77;20.83;;;;;;;;;;5001448;28;20018;-87
2021/05/19 12:25:56;;;;;;;11.38;8.13;;;;;;;;;;5000128;28;20023;-88
2021/05/19 12:28:24;;;;;;;12.70;8.52;;;;;;;;;;5001040;28;20109;-88
2021/05/19 12:30:51;;;;;;;11.20;6.43;;;;;;;;;;5000034;28;20080;-89
2021/05/19 12:33:22;;;;;;;31.65;21.17;;;;;;;;;;5000629;28;20050;-89
2021/05/19 12:35:48;;;;;;;17.95;10.85;;;;;;;;;;5000186;28;20026;-90
2021/05/19 12:38:25;;;;;;;24.83;14.75;;;;;;;;;;4999931;28;20033;-90
2021/05/19 12:40:52;;;;;;;16.98;11.95;;;;;;;;;;5000846;28;20030;-91
2021/05/19 12:43:22;;;;;;;10.93;6.00;;;;;;;;;;4999903;28;20057;-88
2021/05/19 12:45:51;;;;;;;16.75;8.10;;;;;;;;;;5000759;28;20037;-89
2021/05/19 12:48:19;;;;;;;14.20;8.57;;;;;;;;;;5000906;28;20022;-89
2021/05/19 12:50:45;;;;;;;26.80;14.68;;;;;;;;;;4999793;28;20023;-89
2021/05/19 12:53:31;;;;;;;35.00;19.33;;;;;;;;;;5007838;28;20022;-96
2021/05/19 12:56:25;;;;;;;28.77;15.52;;;;;;;;;;5013968;28;20038;-96
2021/05/19 12:58:59;;;;;;;16.27;10.20;;;;;;;;;;5014856;28;20022;-96
2021/05/19 13:01:27;;;;;;;10.27;7.03;;;;;;;;;;5007138;28;20046;-90
2021/05/19 13:03:54;;;;;;;8.90;6.78;;;;;;;;;;5000789;28;20023;-90
2021/05/19 13:06:24;;;;;;;9.65;7.50;;;;;;;;;;4999861;28;20069;-90
2021/05/19 13:08:57;;;;;;;10.52;6.47;;;;;;;;;;5000602;28;20022;-89
2021/05/19 13:11:24;;;;;;;8.93;6.35;;;;;;;;;;5000527;28;20348;-91
2021/05/19 13:13:50;;;;;;;11.07;6.43;;;;;;;;;;5000448;28;20149;-90
2021/05/19 13:16:25;;;;;;;13.48;6.72;;;;;;;;;;4999332;28;20035;-90
2021/05/19 13:18:59;;;;;;;11.25;5.03;;;;;;;;;;4999305;28;20022;-89
2021/05/19 13:21:55;;;;;;;7.07;4.60;;;;;;;;;;4999587;28;20042;-90
2021/05/19 13:24:22;;;;;;;10.60;4.93;;;;;;;;;;4924786;29;20032;-89
2021/05/19 13:26:56;;;;;;;12.43;6.97;;;;;;;;;;4940523;29;20032;-90
2021/05/19 13:29:22;;;;;;;8.80;5.47;;;;;;;;;;4924604;29;20034;-89
2021/05/19 13:37:10;;;;;;;7.50;4.72;;;;;;;;;;4921473;29;20047;-90
2021/05/19 13:39:36;;;;;;;7.80;4.70;;;;;;;;;;4905614;29;20429;-90
2021/05/19 13:42:03;;;;;;;6.90;4.43;;;;;;;;;;4921177;29;20099;-89
2021/05/19 13:44:29;;;;;;;8.68;4.60;;;;;;;;;;4920946;29;20330;-89
2021/05/19 13:46:56;;;;;;;10.20;4.80;;;;;;;;;;4905115;28;20032;-90
2021/05/19 13:49:27;;;;;;;5.57;4.53;;;;;;;;;;4905373;29;20418;-90
2021/05/19 13:52:00;;;;;;;5.70;4.47;;;;;;;;;;4921027;29;20042;-89
2021/05/19 13:54:27;;;;;;;10.07;3.45;;;;;;;;;;4920872;29;20048;-90
2021/05/19 13:56:54;;;;;;;3.75;2.70;;;;;;;;;;4920926;29;20403;-90
2021/05/19 13:59:20;;;;;;;5.57;3.08;;;;;;;;;;4905161;29;20036;-90
2021/05/19 14:01:47;;;;;;;7.75;3.03;;;;;;;;;;4956924;29;20071;-89
2021/05/19 14:04:14;;;;;;;5.65;3.53;;;;;;;;;;4958919;29;20046;-90
2021/05/19 14:06:40;;;;;;;6.78;3.35;;;;;;;;;;4958643;29;20389;-89
2021/05/19 14:09:07;;;;;;;5.45;3.45;;;;;;;;;;4958933;29;20410;-90
2021/05/19 14:11:35;;;;;;;7.90;3.95;;;;;;;;;;4985688;28;20118;-89
2021/05/19 14:27:21;;;;;;;7.60;4.85;;;;;;;;;;5016967;28;20036;-91
2021/05/19 14:29:49;;;;;;;8.30;4.85;;;;;;;;;;5000604;28;20037;-89
2021/05/19 14:32:16;;;;;;;8.55;5.45;;;;;;;;;;5016791;28;20109;-90
2021/05/19 14:34:43;;;;;;;8.20;5.10;;;;;;;;;;5000352;28;20437;-89
2021/05/19 14:45:56;;;;;;;15.40;7.43;;;;;;;;;;5017006;28;20098;-90
2021/05/19 15:01:48;;;;;;;10.45;7.43;;;;;;;;;;4998413;28;20037;-91
2021/05/19 15:04:14;;;;;;;10.43;7.30;;;;;;;;;;4997748;28;20034;-91
2021/05/19 15:06:40;;;;;;;13.98;8.20;;;;;;;;;;4998338;28;20049;-91
2021/05/19 15:09:10;;;;;;;12.50;8.50;;;;;;;;;;4997435;28;20298;-90
2021/05/19 15:11:36;;;;;;;14.02;10.15;;;;;;;;;;4998198;28;20030;-91
2021/05/19 15:14:03;;;;;;;19.88;11.90;;;;;;;;;;4997433;28;20030;-91
2021/05/19 15:16:30;;;;;;;20.95;11.95;;;;;;;;;;4998537;28;20362;-90
2021/05/19 15:18:56;;;;;;;17.45;12.80;;;;;;;;;;4998072;28;20301;-90
2021/05/19 15:21:22;;;;;;;21.52;13.13;;;;;;;;;;4998317;28;20026;-89
2021/05/19 15:23:49;;;;;;;23.10;15.10;;;;;;;;;;4997934;28;20027;-88
2021/05/19 15:26:15;;;;;;;23.63;16.17;;;;;;;;;;4998088;28;20033;-86
2021/05/19 15:28:41;;;;;;;22.75;15.13;;;;;;;;;;4998044;28;20065;-86
2021/05/19 15:31:07;;;;;;;22.02;15.70;;;;;;;;;;4998200;28;20040;-90